sensor_id;sensor_type;location;lat;lon;timestamp;temperature;humidity
55091;DHT22;40985;53.180;5.800;2023-04-03T00:00:55;1.80;99.90
55091;DHT22;40985;53.180;5.800;2023-04-03T00:03:20;1.80;99.90
55091;DHT22;40985;53.180;5.800;2023-04-03T00:05:47;1.80;99.90
55091;DHT22;40985;53.180;5.800;2023-04-03T00:08:13;1.70;99.90
55091;DHT22;40985;53.180;5.800;2023-04-03T00:10:39;1.70;99.90
55091;DHT22;40985;53.180;5.800;2023-04-03T00:13:06;1.70;99.90
55091;DHT22;40985;53.180;5.800;2023-04-03T00:15:32;1.60;99.90
55091;DHT22;40985;53.180;5.800;2023-04-03T00:17:57;1.60;99.90
55091;DHT22;40985;53.180;5.800;2023-04-03T00:20:25;1.50;99.90
55091;DHT22;40985;53.180;5.800;2023-04-03T00:23:01;1.50;99.90
55091;DHT22;40985;53.180;5.800;2023-04-03T00:25:28;1.50;99.90
55091;DHT22;40985;53.180;5.800;2023-04-03T00:27:54;1.40;99.90
55091;DHT22;40985;53.180;5.800;2023-04-03T00:30:21;1.40;99.90
55091;DHT22;40985;53.180;5.800;2023-04-03T00:32:49;1.30;99.90
55091;DHT22;40985;53.180;5.800;2023-04-03T00:35:15;1.30;99.90
55091;DHT22;40985;53.180;5.800;2023-04-03T00:37:42;1.30;99.90
55091;DHT22;40985;53.180;5.800;2023-04-03T00:40:09;1.30;99.90
55091;DHT22;40985;53.180;5.800;2023-04-03T00:42:36;1.30;99.90
55091;DHT22;40985;53.180;5.800;2023-04-03T00:47:30;1.30;99.90
55091;DHT22;40985;53.180;5.800;2023-04-03T00:49:57;1.30;99.90
55091;DHT22;40985;53.180;5.800;2023-04-03T00:52:26;1.30;99.90
55091;DHT22;40985;53.180;5.800;2023-04-03T00:54:57;1.30;99.90
55091;DHT22;40985;53.180;5.800;2023-04-03T00:57:23;1.20;99.90
55091;DHT22;40985;53.180;5.800;2023-04-03T00:59:54;1.30;99.90
55091;DHT22;40985;53.180;5.800;2023-04-03T01:02:20;1.20;99.90
55091;DHT22;40985;53.180;5.800;2023-04-03T01:04:46;1.20;99.90
55091;DHT22;40985;53.180;5.800;2023-04-03T01:07:17;1.20;99.90
55091;DHT22;40985;53.180;5.800;2023-04-03T01:09:45;1.20;99.90
55091;DHT22;40985;53.180;5.800;2023-04-03T01:12:23;1.20;99.90
55091;DHT22;40985;53.180;5.800;2023-04-03T01:14:53;1.20;99.90
55091;DHT22;40985;53.180;5.800;2023-04-03T01:17:46;1.20;99.90
55091;DHT22;40985;53.180;5.800;2023-04-03T01:25:31;1.10;99.90
55091;DHT22;40985;53.180;5.800;2023-04-03T01:27:57;1.10;99.90
55091;DHT22;40985;53.180;5.800;2023-04-03T01:30:30;1.10;99.90
55091;DHT22;40985;53.180;5.800;2023-04-03T01:32:56;1.10;99.90
55091;DHT22;40985;53.180;5.800;2023-04-03T01:35:22;1.10;99.90
55091;DHT22;40985;53.180;5.800;2023-04-03T01:37:48;1.00;99.90
55091;DHT22;40985;53.180;5.800;2023-04-03T01:40:15;1.10;99.90
55091;DHT22;40985;53.180;5.800;2023-04-03T01:42:40;1.00;99.90
55091;DHT22;40985;53.180;5.800;2023-04-03T01:45:06;1.00;99.90
55091;DHT22;40985;53.180;5.800;2023-04-03T01:47:34;1.00;99.90
55091;DHT22;40985;53.180;5.800;2023-04-03T01:49:59;0.90;99.90
55091;DHT22;40985;53.180;5.800;2023-04-03T01:52:26;0.90;99.90
55091;DHT22;40985;53.180;5.800;2023-04-03T01:54:52;0.90;99.90
55091;DHT22;40985;53.180;5.800;2023-04-03T01:57:18;0.80;99.90
55091;DHT22;40985;53.180;5.800;2023-04-03T01:59:43;0.80;99.90
55091;DHT22;40985;53.180;5.800;2023-04-03T02:02:09;0.80;99.90
55091;DHT22;40985;53.180;5.800;2023-04-03T02:04:35;0.80;99.90
55091;DHT22;40985;53.180;5.800;2023-04-03T02:07:00;0.80;99.90
55091;DHT22;40985;53.180;5.800;2023-04-03T02:09:29;0.80;99.90
55091;DHT22;40985;53.180;5.800;2023-04-03T02:11:56;0.80;99.90
55091;DHT22;40985;53.180;5.800;2023-04-03T02:14:22;0.80;99.90
55091;DHT22;40985;53.180;5.800;2023-04-03T02:16:49;0.70;99.90
55091;DHT22;40985;53.180;5.800;2023-04-03T02:19:15;0.70;99.90
55091;DHT22;40985;53.180;5.800;2023-04-03T02:21:41;0.70;99.90
55091;DHT22;40985;53.180;5.800;2023-04-03T02:24:07;0.70;99.90
55091;DHT22;40985;53.180;5.800;2023-04-03T02:26:33;0.70;99.90
55091;DHT22;40985;53.180;5.800;2023-04-03T02:29:04;0.70;99.90
55091;DHT22;40985;53.180;5.800;2023-04-03T02:31:31;0.70;99.90
55091;DHT22;40985;53.180;5.800;2023-04-03T02:33:56;0.60;99.90
55091;DHT22;40985;53.180;5.800;2023-04-03T02:36:22;0.60;99.90
55091;DHT22;40985;53.180;5.800;2023-04-03T02:38:48;0.60;99.90
55091;DHT22;40985;53.180;5.800;2023-04-03T02:41:13;0.60;99.90
55091;DHT22;40985;53.180;5.800;2023-04-03T02:43:39;0.50;99.90
55091;DHT22;40985;53.180;5.800;2023-04-03T02:46:05;0.50;99.90
55091;DHT22;40985;53.180;5.800;2023-04-03T02:48:31;0.50;99.90
55091;DHT22;40985;53.180;5.800;2023-04-03T02:50:57;0.50;99.90
55091;DHT22;40985;53.180;5.800;2023-04-03T02:53:22;0.50;99.90
55091;DHT22;40985;53.180;5.800;2023-04-03T02:55:48;0.50;99.90
55091;DHT22;40985;53.180;5.800;2023-04-03T02:58:17;0.50;99.90
55091;DHT22;40985;53.180;5.800;2023-04-03T03:00:43;0.50;99.90
55091;DHT22;40985;53.180;5.800;2023-04-03T03:03:12;0.40;99.90
55091;DHT22;40985;53.180;5.800;2023-04-03T03:05:42;0.40;99.90
55091;DHT22;40985;53.180;5.800;2023-04-03T03:08:08;0.40;99.90
55091;DHT22;40985;53.180;5.800;2023-04-03T03:10:35;0.40;99.90
55091;DHT22;40985;53.180;5.800;2023-04-03T03:13:00;0.30;99.90
55091;DHT22;40985;53.180;5.800;2023-04-03T03:15:26;0.30;99.90
55091;DHT22;40985;53.180;5.800;2023-04-03T03:17:53;0.30;99.90
55091;DHT22;40985;53.180;5.800;2023-04-03T03:20:19;0.30;99.90
55091;DHT22;40985;53.180;5.800;2023-04-03T03:22:45;0.20;99.90
55091;DHT22;40985;53.180;5.800;2023-04-03T03:25:10;0.20;99.90
55091;DHT22;40985;53.180;5.800;2023-04-03T03:27:36;0.20;99.90
55091;DHT22;40985;53.180;5.800;2023-04-03T03:30:02;0.20;99.90
55091;DHT22;40985;53.180;5.800;2023-04-03T03:32:29;0.20;99.90
55091;DHT22;40985;53.180;5.800;2023-04-03T03:34:54;0.10;99.90
55091;DHT22;40985;53.180;5.800;2023-04-03T03:37:20;0.10;99.90
55091;DHT22;40985;53.180;5.800;2023-04-03T03:39:49;0.10;99.90
55091;DHT22;40985;53.180;5.800;2023-04-03T03:42:17;0.10;99.90
55091;DHT22;40985;53.180;5.800;2023-04-03T03:44:43;0.10;99.90
55091;DHT22;40985;53.180;5.800;2023-04-03T03:47:09;0.10;99.90
55091;DHT22;40985;53.180;5.800;2023-04-03T03:49:36;0.10;99.90
55091;DHT22;40985;53.180;5.800;2023-04-03T03:52:01;0.00;99.90
55091;DHT22;40985;53.180;5.800;2023-04-03T03:54:27;0.00;99.90
55091;DHT22;40985;53.180;5.800;2023-04-03T03:56:53;0.00;99.90
55091;DHT22;40985;53.180;5.800;2023-04-03T03:59:21;0.00;99.90
55091;DHT22;40985;53.180;5.800;2023-04-03T04:01:48;-0.10;99.90
55091;DHT22;40985;53.180;5.800;2023-04-03T04:04:14;-0.10;99.90
55091;DHT22;40985;53.180;5.800;2023-04-03T04:06:39;-0.10;99.90
55091;DHT22;40985;53.180;5.800;2023-04-03T04:09:05;-0.20;99.90
55091;DHT22;40985;53.180;5.800;2023-04-03T04:11:31;-0.20;99.90
55091;DHT22;40985;53.180;5.800;2023-04-03T04:13:58;-0.20;99.90
55091;DHT22;40985;53.180;5.800;2023-04-03T04:16:25;-0.20;99.90
55091;DHT22;40985;53.180;5.800;2023-04-03T04:18:51;-0.20;99.90
55091;DHT22;40985;53.180;5.800;2023-04-03T04:21:17;-0.20;99.90
55091;DHT22;40985;53.180;5.800;2023-04-03T04:23:42;-0.20;99.90
55091;DHT22;40985;53.180;5.800;2023-04-03T04:26:08;-0.20;99.90
55091;DHT22;40985;53.180;5.800;2023-04-03T04:28:34;-0.30;99.90
55091;DHT22;40985;53.180;5.800;2023-04-03T04:30:59;-0.30;99.90
55091;DHT22;40985;53.180;5.800;2023-04-03T04:33:25;-0.30;99.90
55091;DHT22;40985;53.180;5.800;2023-04-03T04:35:51;-0.40;99.90
55091;DHT22;40985;53.180;5.800;2023-04-03T04:38:17;-0.40;99.90
55091;DHT22;40985;53.180;5.800;2023-04-03T04:40:43;-0.40;99.90
55091;DHT22;40985;53.180;5.800;2023-04-03T04:43:08;-0.40;99.90
55091;DHT22;40985;53.180;5.800;2023-04-03T04:45:34;-0.40;99.90
55091;DHT22;40985;53.180;5.800;2023-04-03T04:48:00;-0.50;99.90
55091;DHT22;40985;53.180;5.800;2023-04-03T04:50:25;-0.50;99.90
55091;DHT22;40985;53.180;5.800;2023-04-03T04:52:52;-0.60;99.90
55091;DHT22;40985;53.180;5.800;2023-04-03T04:55:17;-0.60;99.90
55091;DHT22;40985;53.180;5.800;2023-04-03T04:57:43;-0.60;99.90
55091;DHT22;40985;53.180;5.800;2023-04-03T05:00:09;-0.60;99.90
55091;DHT22;40985;53.180;5.800;2023-04-03T05:02:35;-0.60;99.90
55091;DHT22;40985;53.180;5.800;2023-04-03T05:05:01;-0.60;99.90
55091;DHT22;40985;53.180;5.800;2023-04-03T05:07:27;-0.60;99.90
55091;DHT22;40985;53.180;5.800;2023-04-03T05:09:53;-0.60;99.90
55091;DHT22;40985;53.180;5.800;2023-04-03T05:12:19;-0.50;99.90
55091;DHT22;40985;53.180;5.800;2023-04-03T05:14:44;-0.50;99.90
55091;DHT22;40985;53.180;5.800;2023-04-03T05:17:10;-0.50;99.90
55091;DHT22;40985;53.180;5.800;2023-04-03T05:19:36;-0.50;99.90
55091;DHT22;40985;53.180;5.800;2023-04-03T05:22:01;-0.50;99.90
55091;DHT22;40985;53.180;5.800;2023-04-03T05:24:28;-0.50;99.90
55091;DHT22;40985;53.180;5.800;2023-04-03T05:26:53;-0.50;99.90
55091;DHT22;40985;53.180;5.800;2023-04-03T05:29:19;-0.50;99.90
55091;DHT22;40985;53.180;5.800;2023-04-03T05:31:45;-0.50;99.90
55091;DHT22;40985;53.180;5.800;2023-04-03T05:34:12;-0.60;99.90
55091;DHT22;40985;53.180;5.800;2023-04-03T05:36:39;-0.50;99.90
55091;DHT22;40985;53.180;5.800;2023-04-03T05:39:05;-0.50;99.90
55091;DHT22;40985;53.180;5.800;2023-04-03T05:41:31;-0.60;99.90
55091;DHT22;40985;53.180;5.800;2023-04-03T05:43:58;-0.60;99.90
55091;DHT22;40985;53.180;5.800;2023-04-03T05:46:24;-0.50;99.90
55091;DHT22;40985;53.180;5.800;2023-04-03T05:48:50;-0.50;99.90
55091;DHT22;40985;53.180;5.800;2023-04-03T05:51:24;-0.50;99.90
55091;DHT22;40985;53.180;5.800;2023-04-03T05:53:56;-0.50;99.90
55091;DHT22;40985;53.180;5.800;2023-04-03T05:56:25;-0.40;99.90
55091;DHT22;40985;53.180;5.800;2023-04-03T05:58:50;-0.40;99.90
55091;DHT22;40985;53.180;5.800;2023-04-03T06:01:16;-0.40;99.90
55091;DHT22;40985;53.180;5.800;2023-04-03T06:03:42;-0.40;99.90
55091;DHT22;40985;53.180;5.800;2023-04-03T06:06:13;-0.30;99.90
55091;DHT22;40985;53.180;5.800;2023-04-03T06:08:39;-0.30;99.90
55091;DHT22;40985;53.180;5.800;2023-04-03T06:11:09;-0.20;99.90
55091;DHT22;40985;53.180;5.800;2023-04-03T06:13:35;-0.20;99.90
55091;DHT22;40985;53.180;5.800;2023-04-03T06:16:01;-0.10;99.90
55091;DHT22;40985;53.180;5.800;2023-04-03T06:18:27;-0.20;99.90
55091;DHT22;40985;53.180;5.800;2023-04-03T06:20:53;-0.10;99.90
55091;DHT22;40985;53.180;5.800;2023-04-03T06:23:19;-0.10;99.90
55091;DHT22;40985;53.180;5.800;2023-04-03T06:25:45;-0.10;99.90
55091;DHT22;40985;53.180;5.800;2023-04-03T06:28:10;-0.10;99.90
55091;DHT22;40985;53.180;5.800;2023-04-03T06:30:36;0.00;99.90
55091;DHT22;40985;53.180;5.800;2023-04-03T06:33:03;0.10;99.90
55091;DHT22;40985;53.180;5.800;2023-04-03T06:35:28;0.10;99.90
55091;DHT22;40985;53.180;5.800;2023-04-03T06:37:55;0.10;99.90
55091;DHT22;40985;53.180;5.800;2023-04-03T06:40:23;0.30;99.90
55091;DHT22;40985;53.180;5.800;2023-04-03T06:42:50;0.20;99.90
55091;DHT22;40985;53.180;5.800;2023-04-03T06:45:16;0.30;99.90
55091;DHT22;40985;53.180;5.800;2023-04-03T06:47:42;0.40;99.90
55091;DHT22;40985;53.180;5.800;2023-04-03T06:50:09;0.50;99.90
55091;DHT22;40985;53.180;5.800;2023-04-03T06:52:36;0.50;99.90
55091;DHT22;40985;53.180;5.800;2023-04-03T06:55:03;0.70;99.90
55091;DHT22;40985;53.180;5.800;2023-04-03T06:57:29;0.70;99.90
55091;DHT22;40985;53.180;5.800;2023-04-03T06:59:55;0.70;99.90
55091;DHT22;40985;53.180;5.800;2023-04-03T07:02:21;0.80;99.90
55091;DHT22;40985;53.180;5.800;2023-04-03T07:04:47;0.90;99.90
55091;DHT22;40985;53.180;5.800;2023-04-03T07:07:12;1.00;99.90
55091;DHT22;40985;53.180;5.800;2023-04-03T07:09:38;1.00;99.90
55091;DHT22;40985;53.180;5.800;2023-04-03T07:12:04;1.10;99.90
55091;DHT22;40985;53.180;5.800;2023-04-03T07:14:30;1.20;99.90
55091;DHT22;40985;53.180;5.800;2023-04-03T07:16:56;1.20;99.90
55091;DHT22;40985;53.180;5.800;2023-04-03T07:19:23;1.20;99.90
55091;DHT22;40985;53.180;5.800;2023-04-03T07:21:49;1.30;99.90
55091;DHT22;40985;53.180;5.800;2023-04-03T07:24:24;1.40;99.90
55091;DHT22;40985;53.180;5.800;2023-04-03T07:26:52;1.40;99.90
55091;DHT22;40985;53.180;5.800;2023-04-03T07:29:18;1.50;99.90
55091;DHT22;40985;53.180;5.800;2023-04-03T07:31:45;1.60;99.90
55091;DHT22;40985;53.180;5.800;2023-04-03T07:34:11;1.60;99.90
55091;DHT22;40985;53.180;5.800;2023-04-03T07:36:41;1.70;99.90
55091;DHT22;40985;53.180;5.800;2023-04-03T07:39:06;1.80;99.90
55091;DHT22;40985;53.180;5.800;2023-04-03T07:41:33;2.10;99.90
55091;DHT22;40985;53.180;5.800;2023-04-03T07:43:59;1.90;99.90
55091;DHT22;40985;53.180;5.800;2023-04-03T07:46:27;2.00;99.90
55091;DHT22;40985;53.180;5.800;2023-04-03T07:48:53;2.00;99.90
55091;DHT22;40985;53.180;5.800;2023-04-03T07:51:18;2.10;99.90
55091;DHT22;40985;53.180;5.800;2023-04-03T07:53:45;2.20;99.90
55091;DHT22;40985;53.180;5.800;2023-04-03T07:56:11;2.30;99.90
55091;DHT22;40985;53.180;5.800;2023-04-03T07:58:40;2.40;99.90
55091;DHT22;40985;53.180;5.800;2023-04-03T08:01:06;2.40;99.90
55091;DHT22;40985;53.180;5.800;2023-04-03T08:03:31;2.60;99.90
55091;DHT22;40985;53.180;5.800;2023-04-03T08:06:05;2.70;99.90
55091;DHT22;40985;53.180;5.800;2023-04-03T08:08:32;2.80;99.90
55091;DHT22;40985;53.180;5.800;2023-04-03T08:11:00;2.90;99.90
55091;DHT22;40985;53.180;5.800;2023-04-03T08:13:28;3.00;99.90
55091;DHT22;40985;53.180;5.800;2023-04-03T08:15:56;3.10;99.90
55091;DHT22;40985;53.180;5.800;2023-04-03T08:18:23;3.10;99.90
55091;DHT22;40985;53.180;5.800;2023-04-03T08:20:52;3.20;99.90
55091;DHT22;40985;53.180;5.800;2023-04-03T08:23:18;3.30;99.90
55091;DHT22;40985;53.180;5.800;2023-04-03T08:25:44;3.40;99.90
55091;DHT22;40985;53.180;5.800;2023-04-03T08:28:11;3.50;99.90
55091;DHT22;40985;53.180;5.800;2023-04-03T08:30:41;3.60;99.90
55091;DHT22;40985;53.180;5.800;2023-04-03T08:33:09;3.60;99.90
55091;DHT22;40985;53.180;5.800;2023-04-03T08:35:41;3.80;99.90
55091;DHT22;40985;53.180;5.800;2023-04-03T08:38:08;3.80;99.90
55091;DHT22;40985;53.180;5.800;2023-04-03T08:40:34;3.90;99.90
55091;DHT22;40985;53.180;5.800;2023-04-03T08:46:05;4.00;99.90
55091;DHT22;40985;53.180;5.800;2023-04-03T08:48:34;4.10;99.90
55091;DHT22;40985;53.180;5.800;2023-04-03T08:51:09;4.30;99.90
55091;DHT22;40985;53.180;5.800;2023-04-03T08:53:42;4.30;99.90
55091;DHT22;40985;53.180;5.800;2023-04-03T08:56:11;4.40;99.90
55091;DHT22;40985;53.180;5.800;2023-04-03T08:58:48;4.50;99.90
55091;DHT22;40985;53.180;5.800;2023-04-03T09:01:35;4.50;99.90
55091;DHT22;40985;53.180;5.800;2023-04-03T09:04:16;4.60;99.90
55091;DHT22;40985;53.180;5.800;2023-04-03T09:06:59;4.70;99.90
55091;DHT22;40985;53.180;5.800;2023-04-03T09:09:39;4.90;99.90
55091;DHT22;40985;53.180;5.800;2023-04-03T09:12:24;5.00;99.90
55091;DHT22;40985;53.180;5.800;2023-04-03T09:20:36;5.30;99.90
55091;DHT22;40985;53.180;5.800;2023-04-03T09:23:24;5.40;99.90
55091;DHT22;40985;53.180;5.800;2023-04-03T09:25:58;5.50;99.90
55091;DHT22;40985;53.180;5.800;2023-04-03T09:28:29;5.50;99.90
55091;DHT22;40985;53.180;5.800;2023-04-03T09:31:00;5.60;99.90
55091;DHT22;40985;53.180;5.800;2023-04-03T09:33:26;5.70;99.90
55091;DHT22;40985;53.180;5.800;2023-04-03T09:35:57;5.80;99.90
55091;DHT22;40985;53.180;5.800;2023-04-03T09:38:22;5.90;99.90
55091;DHT22;40985;53.180;5.800;2023-04-03T09:41:03;6.00;99.90
55091;DHT22;40985;53.180;5.800;2023-04-03T09:43:34;6.00;99.90
55091;DHT22;40985;53.180;5.800;2023-04-03T09:46:33;6.30;99.90
55091;DHT22;40985;53.180;5.800;2023-04-03T09:49:04;6.50;99.90
55091;DHT22;40985;53.180;5.800;2023-04-03T09:51:31;6.60;99.90
55091;DHT22;40985;53.180;5.800;2023-04-03T09:53:57;6.60;99.90
55091;DHT22;40985;53.180;5.800;2023-04-03T09:56:29;6.60;99.90
55091;DHT22;40985;53.180;5.800;2023-04-03T10:01:31;6.90;99.90
55091;DHT22;40985;53.180;5.800;2023-04-03T10:04:14;7.00;99.90
55091;DHT22;40985;53.180;5.800;2023-04-03T10:06:46;6.90;99.90
55091;DHT22;40985;53.180;5.800;2023-04-03T10:09:28;7.00;99.90
55091;DHT22;40985;53.180;5.800;2023-04-03T10:12:09;7.10;99.90
55091;DHT22;40985;53.180;5.800;2023-04-03T10:14:37;7.10;99.90
55091;DHT22;40985;53.180;5.800;2023-04-03T10:17:21;7.20;99.90
55091;DHT22;40985;53.180;5.800;2023-04-03T10:25:40;7.40;99.90
55091;DHT22;40985;53.180;5.800;2023-04-03T10:28:28;7.60;99.90
55091;DHT22;40985;53.180;5.800;2023-04-03T10:34:11;7.50;99.90
55091;DHT22;40985;53.180;5.800;2023-04-03T10:36:47;7.60;99.90
55091;DHT22;40985;53.180;5.800;2023-04-03T10:42:46;7.80;99.90
55091;DHT22;40985;53.180;5.800;2023-04-03T10:45:26;7.60;99.90
55091;DHT22;40985;53.180;5.800;2023-04-03T11:01:42;8.10;99.90
55091;DHT22;40985;53.180;5.800;2023-04-03T11:04:10;8.30;99.90
55091;DHT22;40985;53.180;5.800;2023-04-03T11:06:47;8.40;99.90
55091;DHT22;40985;53.180;5.800;2023-04-03T11:09:26;8.40;99.90
55091;DHT22;40985;53.180;5.800;2023-04-03T11:11:57;8.50;99.90
55091;DHT22;40985;53.180;5.800;2023-04-03T11:14:31;8.40;99.90
55091;DHT22;40985;53.180;5.800;2023-04-03T11:22:23;8.60;99.90
55091;DHT22;40985;53.180;5.800;2023-04-03T11:27:25;8.60;99.90
55091;DHT22;40985;53.180;5.800;2023-04-03T11:29:57;8.90;99.90
55091;DHT22;40985;53.180;5.800;2023-04-03T11:32:29;8.90;99.90
55091;DHT22;40985;53.180;5.800;2023-04-03T11:35:01;8.90;99.90
55091;DHT22;40985;53.180;5.800;2023-04-03T11:40:00;9.10;99.90
55091;DHT22;40985;53.180;5.800;2023-04-03T11:42:42;9.10;99.90
55091;DHT22;40985;53.180;5.800;2023-04-03T11:50:47;9.30;99.90
55091;DHT22;40985;53.180;5.800;2023-04-03T11:58:29;9.60;99.90
55091;DHT22;40985;53.180;5.800;2023-04-03T12:00:57;9.60;99.90
55091;DHT22;40985;53.180;5.800;2023-04-03T12:11:30;9.60;99.90
55091;DHT22;40985;53.180;5.800;2023-04-03T12:43:05;10.10;99.90
55091;DHT22;40985;53.180;5.800;2023-04-03T12:48:39;10.40;99.90
55091;DHT22;40985;53.180;5.800;2023-04-03T12:51:19;10.30;99.90
55091;DHT22;40985;53.180;5.800;2023-04-03T12:53:46;10.50;99.90
55091;DHT22;40985;53.180;5.800;2023-04-03T12:56:25;10.70;99.90
55091;DHT22;40985;53.180;5.800;2023-04-03T12:58:53;10.80;99.90
55091;DHT22;40985;53.180;5.800;2023-04-03T13:01:24;10.60;99.90
55091;DHT22;40985;53.180;5.800;2023-04-03T13:03:55;10.00;99.90
55091;DHT22;40985;53.180;5.800;2023-04-03T13:06:30;10.10;99.90
55091;DHT22;40985;53.180;5.800;2023-04-03T13:08:59;10.20;99.90
55091;DHT22;40985;53.180;5.800;2023-04-03T13:11:37;10.30;99.90
55091;DHT22;40985;53.180;5.800;2023-04-03T13:14:17;10.20;99.90
55091;DHT22;40985;53.180;5.800;2023-04-03T13:16:56;10.40;99.90
55091;DHT22;40985;53.180;5.800;2023-04-03T13:19:23;10.50;99.90
55091;DHT22;40985;53.180;5.800;2023-04-03T13:21:56;10.40;99.90
55091;DHT22;40985;53.180;5.800;2023-04-03T13:24:24;10.50;99.90
55091;DHT22;40985;53.180;5.800;2023-04-03T13:26:51;10.50;99.90
55091;DHT22;40985;53.180;5.800;2023-04-03T13:29:28;10.50;99.90
55091;DHT22;40985;53.180;5.800;2023-04-03T13:31:55;10.40;99.90
55091;DHT22;40985;53.180;5.800;2023-04-03T13:34:23;10.80;99.90
55091;DHT22;40985;53.180;5.800;2023-04-03T13:41:45;10.50;99.90
55091;DHT22;40985;53.180;5.800;2023-04-03T13:44:34;10.60;99.90
55091;DHT22;40985;53.180;5.800;2023-04-03T13:52:29;10.60;99.90
55091;DHT22;40985;53.180;5.800;2023-04-03T13:55:01;10.60;99.90
55091;DHT22;40985;53.180;5.800;2023-04-03T13:57:27;10.50;99.90
55091;DHT22;40985;53.180;5.800;2023-04-03T13:59:53;10.60;99.90
55091;DHT22;40985;53.180;5.800;2023-04-03T14:02:33;10.50;99.90
55091;DHT22;40985;53.180;5.800;2023-04-03T14:05:01;10.60;99.90
55091;DHT22;40985;53.180;5.800;2023-04-03T14:07:29;10.70;99.90
55091;DHT22;40985;53.180;5.800;2023-04-03T14:09:56;10.70;99.90
55091;DHT22;40985;53.180;5.800;2023-04-03T14:12:29;10.60;99.90
55091;DHT22;40985;53.180;5.800;2023-04-03T14:14:57;10.40;99.90
55091;DHT22;40985;53.180;5.800;2023-04-03T14:17:25;10.50;99.90
55091;DHT22;40985;53.180;5.800;2023-04-03T14:19:53;10.70;99.90
55091;DHT22;40985;53.180;5.800;2023-04-03T14:22:22;10.50;99.90
55091;DHT22;40985;53.180;5.800;2023-04-03T14:24:49;10.60;99.90
55091;DHT22;40985;53.180;5.800;2023-04-03T14:27:38;10.70;99.90
55091;DHT22;40985;53.180;5.800;2023-04-03T14:30:08;10.50;99.90
55091;DHT22;40985;53.180;5.800;2023-04-03T14:32:34;10.40;99.90
55091;DHT22;40985;53.180;5.800;2023-04-03T14:35:00;10.30;99.90
55091;DHT22;40985;53.180;5.800;2023-04-03T14:37:29;10.40;99.90
55091;DHT22;40985;53.180;5.800;2023-04-03T14:39:57;10.30;99.90
55091;DHT22;40985;53.180;5.800;2023-04-03T14:42:27;10.30;99.90
55091;DHT22;40985;53.180;5.800;2023-04-03T14:44:53;10.50;99.90
55091;DHT22;40985;53.180;5.800;2023-04-03T14:47:22;10.20;99.90
55091;DHT22;40985;53.180;5.800;2023-04-03T14:49:49;10.30;99.90
55091;DHT22;40985;53.180;5.800;2023-04-03T14:52:27;10.30;99.90
55091;DHT22;40985;53.180;5.800;2023-04-03T14:54:54;10.00;99.90
55091;DHT22;40985;53.180;5.800;2023-04-03T14:57:23;10.00;99.90
55091;DHT22;40985;53.180;5.800;2023-04-03T14:59:49;10.00;99.90
55091;DHT22;40985;53.180;5.800;2023-04-03T15:02:36;9.90;99.90
55091;DHT22;40985;53.180;5.800;2023-04-03T15:05:05;9.80;99.90
55091;DHT22;40985;53.180;5.800;2023-04-03T15:07:39;9.50;99.90
55091;DHT22;40985;53.180;5.800;2023-04-03T15:10:22;9.60;99.90
55091;DHT22;40985;53.180;5.800;2023-04-03T15:12:52;9.60;99.90
55091;DHT22;40985;53.180;5.800;2023-04-03T15:15:20;9.50;99.90
55091;DHT22;40985;53.180;5.800;2023-04-03T15:17:52;9.60;99.90
55091;DHT22;40985;53.180;5.800;2023-04-03T15:20:24;9.60;99.90
55091;DHT22;40985;53.180;5.800;2023-04-03T15:22:57;9.40;99.90
55091;DHT22;40985;53.180;5.800;2023-04-03T15:25:35;9.20;99.90
55091;DHT22;40985;53.180;5.800;2023-04-03T15:28:00;9.20;99.90
55091;DHT22;40985;53.180;5.800;2023-04-03T15:30:26;9.00;99.90
55091;DHT22;40985;53.180;5.800;2023-04-03T15:32:52;8.90;99.90
55091;DHT22;40985;53.180;5.800;2023-04-03T15:35:18;8.50;99.90
55091;DHT22;40985;53.180;5.800;2023-04-03T15:37:50;8.50;99.90
55091;DHT22;40985;53.180;5.800;2023-04-03T15:40:17;8.50;99.90
55091;DHT22;40985;53.180;5.800;2023-04-03T15:42:46;8.50;99.90
55091;DHT22;40985;53.180;5.800;2023-04-03T15:45:15;8.50;99.90
55091;DHT22;40985;53.180;5.800;2023-04-03T15:47:42;8.20;99.90
55091;DHT22;40985;53.180;5.800;2023-04-03T15:50:12;8.20;99.90
55091;DHT22;40985;53.180;5.800;2023-04-03T15:52:39;8.00;99.90
55091;DHT22;40985;53.180;5.800;2023-04-03T15:55:06;7.90;99.90
55091;DHT22;40985;53.180;5.800;2023-04-03T15:57:32;7.80;99.90
55091;DHT22;40985;53.180;5.800;2023-04-03T15:59:58;7.90;99.90
55091;DHT22;40985;53.180;5.800;2023-04-03T16:02:25;7.90;99.90
55091;DHT22;40985;53.180;5.800;2023-04-03T16:04:54;7.90;99.90
55091;DHT22;40985;53.180;5.800;2023-04-03T16:07:21;7.70;99.90
55091;DHT22;40985;53.180;5.800;2023-04-03T16:09:47;7.70;99.90
55091;DHT22;40985;53.180;5.800;2023-04-03T16:12:14;7.70;99.90
55091;DHT22;40985;53.180;5.800;2023-04-03T16:14:40;7.60;99.90
55091;DHT22;40985;53.180;5.800;2023-04-03T16:17:07;7.60;99.90
55091;DHT22;40985;53.180;5.800;2023-04-03T16:19:33;7.50;99.90
55091;DHT22;40985;53.180;5.800;2023-04-03T16:21:59;7.40;99.90
55091;DHT22;40985;53.180;5.800;2023-04-03T16:24:24;7.40;99.90
55091;DHT22;40985;53.180;5.800;2023-04-03T16:26:50;7.40;99.90
55091;DHT22;40985;53.180;5.800;2023-04-03T16:29:16;7.30;99.90
55091;DHT22;40985;53.180;5.800;2023-04-03T16:31:43;7.20;99.90
55091;DHT22;40985;53.180;5.800;2023-04-03T16:34:10;7.10;99.90
55091;DHT22;40985;53.180;5.800;2023-04-03T16:36:38;7.00;99.90
55091;DHT22;40985;53.180;5.800;2023-04-03T16:39:04;7.00;99.90
55091;DHT22;40985;53.180;5.800;2023-04-03T16:41:29;6.90;99.90
55091;DHT22;40985;53.180;5.800;2023-04-03T16:43:55;7.00;99.90
55091;DHT22;40985;53.180;5.800;2023-04-03T16:46:21;6.90;99.90
55091;DHT22;40985;53.180;5.800;2023-04-03T16:48:46;6.90;99.90
55091;DHT22;40985;53.180;5.800;2023-04-03T16:51:13;6.90;99.90
55091;DHT22;40985;53.180;5.800;2023-04-03T16:53:39;6.90;99.90
55091;DHT22;40985;53.180;5.800;2023-04-03T16:56:08;6.80;99.90
55091;DHT22;40985;53.180;5.800;2023-04-03T16:58:37;6.70;99.90
55091;DHT22;40985;53.180;5.800;2023-04-03T17:01:15;6.70;99.90
55091;DHT22;40985;53.180;5.800;2023-04-03T17:03:41;6.60;99.90
55091;DHT22;40985;53.180;5.800;2023-04-03T17:06:07;6.50;99.90
55091;DHT22;40985;53.180;5.800;2023-04-03T17:08:40;6.50;99.90
55091;DHT22;40985;53.180;5.800;2023-04-03T17:11:05;6.50;99.90
55091;DHT22;40985;53.180;5.800;2023-04-03T17:13:31;6.40;99.90
55091;DHT22;40985;53.180;5.800;2023-04-03T17:15:59;6.40;99.90
55091;DHT22;40985;53.180;5.800;2023-04-03T17:18:27;6.30;99.90
55091;DHT22;40985;53.180;5.800;2023-04-03T17:20:53;6.20;99.90
55091;DHT22;40985;53.180;5.800;2023-04-03T17:23:18;6.30;99.90
55091;DHT22;40985;53.180;5.800;2023-04-03T17:25:45;6.30;99.90
55091;DHT22;40985;53.180;5.800;2023-04-03T17:28:12;6.20;99.90
55091;DHT22;40985;53.180;5.800;2023-04-03T17:30:41;6.10;99.90
55091;DHT22;40985;53.180;5.800;2023-04-03T17:33:07;6.10;99.90
55091;DHT22;40985;53.180;5.800;2023-04-03T17:35:32;6.10;99.90
55091;DHT22;40985;53.180;5.800;2023-04-03T17:37:58;6.00;99.90
55091;DHT22;40985;53.180;5.800;2023-04-03T17:40:24;6.00;99.90
55091;DHT22;40985;53.180;5.800;2023-04-03T17:42:50;5.90;99.90
55091;DHT22;40985;53.180;5.800;2023-04-03T17:45:25;5.90;99.90
55091;DHT22;40985;53.180;5.800;2023-04-03T17:47:51;5.80;99.90